Time;durP1;ratioP1;P1;durP2;ratioP2;P2;SDS_P1;SDS_P2;PMS_P1;PMS_P2;Temp;Humidity;BMP_temperature;BMP_pressure;BME280_temperature;BME280_humidity;BME280_pressure;Samples;Min_cycle;Max_cycle;Signal;HPM_P1;HPM_P2
2022/05/02 00:02:13;;;;;;;;;16.00;13.50;;;;;;;;5076641;27;45431;-66
2022/05/02 00:04:38;;;;;;;;;16.25;16.25;;;;;;;;5076762;27;46152;-65
2022/05/02 00:07:03;;;;;;;;;12.25;12.25;;;;;;;;5055489;28;45449;-65
2022/05/02 00:09:28;;;;;;;;;12.50;11.00;;;;;;;;5077997;27;45878;-65
2022/05/02 00:11:54;;;;;;;;;13.25;11.75;;;;;;;;5079943;27;45508;-66
2022/05/02 00:14:19;;;;;;;;;13.50;13.50;;;;;;;;5079857;27;45578;-66
2022/05/02 00:16:44;;;;;;;;;15.00;15.00;;;;;;;;5079995;27;45505;-66
2022/05/02 00:19:09;;;;;;;;;19.75;15.25;;;;;;;;5057526;28;45528;-66
2022/05/02 00:21:34;;;;;;;;;13.00;11.50;;;;;;;;5085828;27;45433;-67
2022/05/02 00:24:00;;;;;;;;;15.50;14.50;;;;;;;;5084799;27;46569;-65
2022/05/02 00:26:25;;;;;;;;;13.75;13.75;;;;;;;;5079846;27;45548;-66
2022/05/02 00:28:50;;;;;;;;;15.00;13.75;;;;;;;;5080050;27;45887;-66
2022/05/02 00:31:15;;;;;;;;;16.00;13.00;;;;;;;;5079235;27;45464;-65
2022/05/02 00:33:40;;;;;;;;;16.00;12.75;;;;;;;;5077687;27;46324;-65
2022/05/02 00:36:06;;;;;;;;;15.50;14.25;;;;;;;;5079443;27;45458;-66
2022/05/02 00:38:31;;;;;;;;;16.75;16.75;;;;;;;;5081722;27;45415;-66
2022/05/02 00:40:57;;;;;;;;;13.25;13.25;;;;;;;;5085033;27;47379;-66
2022/05/02 00:43:23;;;;;;;;;16.75;16.75;;;;;;;;5082950;27;46041;-65
2022/05/02 00:45:49;;;;;;;;;17.25;16.75;;;;;;;;5079655;27;45388;-66
2022/05/02 00:48:14;;;;;;;;;15.75;15.50;;;;;;;;5080393;27;45500;-66
2022/05/02 00:50:41;;;;;;;;;14.50;13.50;;;;;;;;5093030;27;45390;-66
2022/05/02 00:53:08;;;;;;;;;17.00;16.00;;;;;;;;5072829;28;47835;-65
2022/05/02 00:55:34;;;;;;;;;15.75;14.50;;;;;;;;5084200;27;45487;-66
2022/05/02 00:57:59;;;;;;;;;18.25;17.00;;;;;;;;5096033;27;45480;-66
2022/05/02 01:00:25;;;;;;;;;18.00;15.75;;;;;;;;5083736;27;45596;-66
2022/05/02 01:02:51;;;;;;;;;10.00;9.75;;;;;;;;5084272;27;46799;-65
2022/05/02 01:05:16;;;;;;;;;18.00;16.50;;;;;;;;5084065;27;45534;-65
2022/05/02 01:07:41;;;;;;;;;14.75;14.75;;;;;;;;5063072;28;45558;-64
2022/05/02 01:10:06;;;;;;;;;18.25;15.00;;;;;;;;5079944;27;45443;-65
2022/05/02 01:12:32;;;;;;;;;16.75;14.25;;;;;;;;5080297;27;45416;-64
2022/05/02 01:14:57;;;;;;;;;20.00;19.00;;;;;;;;5081583;27;45538;-65
2022/05/02 01:17:22;;;;;;;;;17.00;17.00;;;;;;;;5095246;27;45397;-66
2022/05/02 01:19:48;;;;;;;;;18.50;18.25;;;;;;;;5072717;28;45464;-66
2022/05/02 01:22:13;;;;;;;;;18.00;18.00;;;;;;;;5080436;27;46915;-66
2022/05/02 01:24:40;;;;;;;;;17.00;15.00;;;;;;;;5079337;27;45324;-65
2022/05/02 01:27:06;;;;;;;;;19.25;17.50;;;;;;;;5083678;27;45302;-65
2022/05/02 01:29:32;;;;;;;;;18.25;17.00;;;;;;;;5083674;27;45505;-65
2022/05/02 01:31:57;;;;;;;;;16.50;15.75;;;;;;;;5083468;27;45833;-65
2022/05/02 01:34:23;;;;;;;;;16.75;16.75;;;;;;;;5082045;27;45428;-65
2022/05/02 01:36:48;;;;;;;;;17.25;16.50;;;;;;;;5079105;27;45429;-65
2022/05/02 01:39:13;;;;;;;;;19.50;17.75;;;;;;;;5064219;28;45563;-64
2022/05/02 01:41:39;;;;;;;;;19.00;19.00;;;;;;;;5083551;27;46287;-66
2022/05/02 01:44:04;;;;;;;;;18.50;17.25;;;;;;;;5064473;28;45730;-65
2022/05/02 01:46:30;;;;;;;;;14.25;14.00;;;;;;;;5082522;27;45710;-66
2022/05/02 01:48:55;;;;;;;;;15.75;15.75;;;;;;;;5077436;27;45418;-66
2022/05/02 01:51:21;;;;;;;;;20.75;18.75;;;;;;;;5080824;27;46596;-66
2022/05/02 01:53:46;;;;;;;;;15.25;15.25;;;;;;;;5064959;28;45401;-66
2022/05/02 01:56:11;;;;;;;;;19.00;18.00;;;;;;;;5064963;28;45603;-65
2022/05/02 01:58:37;;;;;;;;;17.25;17.25;;;;;;;;5083550;27;45330;-65
2022/05/02 02:01:02;;;;;;;;;18.50;17.75;;;;;;;;5076555;27;45724;-64
2022/05/02 02:03:27;;;;;;;;;18.75;16.75;;;;;;;;5095514;27;45569;-64
2022/05/02 02:05:53;;;;;;;;;13.25;13.25;;;;;;;;5083591;27;45999;-65
2022/05/02 02:08:19;;;;;;;;;17.00;16.00;;;;;;;;5067007;28;45677;-65
2022/05/02 02:10:45;;;;;;;;;20.25;17.00;;;;;;;;5083041;27;45365;-65
2022/05/02 02:13:11;;;;;;;;;16.00;16.00;;;;;;;;5079447;27;45793;-65
2022/05/02 02:15:36;;;;;;;;;13.00;13.00;;;;;;;;5078930;27;45429;-64
2022/05/02 02:18:01;;;;;;;;;17.50;16.50;;;;;;;;5082404;27;45614;-66
2022/05/02 02:20:27;;;;;;;;;20.50;20.50;;;;;;;;5082775;27;45653;-65
2022/05/02 02:22:52;;;;;;;;;16.75;16.75;;;;;;;;5082412;27;45414;-66
2022/05/02 02:25:17;;;;;;;;;15.25;15.25;;;;;;;;5060309;27;45945;-66
2022/05/02 02:27:42;;;;;;;;;17.75;17.75;;;;;;;;5078193;27;45305;-66
2022/05/02 02:30:08;;;;;;;;;14.00;13.50;;;;;;;;5063759;28;47299;-66
2022/05/02 02:32:33;;;;;;;;;15.00;15.00;;;;;;;;5082429;27;45646;-65
2022/05/02 02:34:58;;;;;;;;;18.75;16.75;;;;;;;;5082744;27;45482;-64
2022/05/02 02:37:24;;;;;;;;;20.25;18.50;;;;;;;;5081096;27;45493;-65
2022/05/02 02:39:49;;;;;;;;;16.75;16.75;;;;;;;;5077995;27;46468;-65
2022/05/02 02:42:14;;;;;;;;;17.75;17.25;;;;;;;;5081125;27;45558;-66
2022/05/02 02:44:40;;;;;;;;;21.50;18.50;;;;;;;;5082514;27;45325;-66
2022/05/02 02:47:05;;;;;;;;;17.00;16.25;;;;;;;;5082425;27;45523;-64
2022/05/02 02:49:30;;;;;;;;;17.75;15.00;;;;;;;;5081466;27;45589;-65
2022/05/02 02:51:56;;;;;;;;;20.50;18.75;;;;;;;;5075459;27;45413;-66
2022/05/02 02:54:21;;;;;;;;;12.25;11.75;;;;;;;;5095036;27;45728;-66
2022/05/02 02:56:46;;;;;;;;;19.25;18.00;;;;;;;;5072284;28;45634;-66
2022/05/02 02:59:12;;;;;;;;;21.25;20.75;;;;;;;;5070388;28;47664;-66
2022/05/02 03:01:37;;;;;;;;;21.25;19.50;;;;;;;;5082377;27;45580;-65
2022/05/02 03:06:01;;;;;;;;;20.00;18.25;;;;;;;;5077673;27;45330;-65
2022/05/02 03:06:48;;;;;;;;;22.00;20.25;;;;;;;;5075556;27;45600;-65
2022/05/02 03:09:13;;;;;;;;;21.25;21.25;;;;;;;;5072658;28;47885;-65
2022/05/02 03:11:38;;;;;;;;;26.75;23.25;;;;;;;;5082204;27;45548;-66
2022/05/02 03:14:04;;;;;;;;;19.25;19.25;;;;;;;;5063549;28;45365;-64
2022/05/02 03:16:29;;;;;;;;;28.25;23.75;;;;;;;;5082805;27;45310;-66
2022/05/02 03:18:54;;;;;;;;;24.75;24.75;;;;;;;;5077655;27;47516;-65
2022/05/02 03:21:19;;;;;;;;;29.00;26.75;;;;;;;;5080284;27;45390;-65
2022/05/02 03:23:44;;;;;;;;;31.00;27.00;;;;;;;;5077875;27;45499;-65
2022/05/02 03:26:10;;;;;;;;;22.25;22.00;;;;;;;;5071694;28;45456;-65
2022/05/02 03:28:35;;;;;;;;;25.25;24.25;;;;;;;;5081967;27;45887;-65
2022/05/02 03:31:00;;;;;;;;;25.50;25.50;;;;;;;;5076635;27;45821;-65
2022/05/02 03:33:25;;;;;;;;;30.25;23.00;;;;;;;;5060568;28;45415;-64
2022/05/02 03:35:50;;;;;;;;;28.00;25.00;;;;;;;;5082185;27;45547;-64
2022/05/02 03:38:16;;;;;;;;;21.00;21.00;;;;;;;;5056336;27;47966;-65
2022/05/02 03:40:41;;;;;;;;;28.50;24.50;;;;;;;;5093153;27;45479;-65
2022/05/02 03:43:06;;;;;;;;;27.25;24.00;;;;;;;;5060709;27;45349;-65
2022/05/02 03:45:31;;;;;;;;;29.50;25.00;;;;;;;;5081104;27;45471;-65
2022/05/02 03:47:59;;;;;;;;;28.75;27.25;;;;;;;;5067240;28;48791;-65
2022/05/02 03:50:24;;;;;;;;;29.50;23.00;;;;;;;;5085518;27;45441;-65
2022/05/02 03:52:49;;;;;;;;;30.25;25.50;;;;;;;;5087219;27;46158;-65
2022/05/02 03:55:14;;;;;;;;;27.75;24.50;;;;;;;;5075322;28;45400;-65
2022/05/02 03:57:39;;;;;;;;;26.00;26.00;;;;;;;;5093905;27;45678;-65
2022/05/02 04:00:05;;;;;;;;;22.75;22.50;;;;;;;;5084885;27;45459;-65
2022/05/02 04:02:30;;;;;;;;;31.75;30.25;;;;;;;;5079094;27;45460;-64
2022/05/02 04:04:56;;;;;;;;;25.50;20.00;;;;;;;;5093969;27;45514;-64
2022/05/02 04:07:21;;;;;;;;;23.50;22.25;;;;;;;;5082603;27;46200;-65
2022/05/02 04:09:46;;;;;;;;;22.00;20.25;;;;;;;;5079358;27;45552;-64
2022/05/02 04:12:12;;;;;;;;;25.25;21.75;;;;;;;;5083004;27;45415;-65
2022/05/02 04:14:37;;;;;;;;;23.75;22.25;;;;;;;;5084357;27;45625;-66
2022/05/02 04:17:02;;;;;;;;;22.25;22.25;;;;;;;;5084372;27;45749;-64
2022/05/02 04:19:27;;;;;;;;;24.25;24.25;;;;;;;;5083343;27;45580;-65
2022/05/02 04:21:53;;;;;;;;;22.75;22.75;;;;;;;;5080178;27;45496;-65
2022/05/02 04:24:19;;;;;;;;;22.50;20.75;;;;;;;;5064614;28;45606;-64
2022/05/02 04:26:44;;;;;;;;;21.50;21.00;;;;;;;;5084323;27;46650;-64
2022/05/02 04:29:09;;;;;;;;;28.00;25.50;;;;;;;;5089036;27;45350;-65
2022/05/02 04:31:34;;;;;;;;;23.25;23.25;;;;;;;;5096383;27;45500;-65
2022/05/02 04:34:00;;;;;;;;;23.25;23.00;;;;;;;;5077679;27;45614;-64
2022/05/02 04:36:25;;;;;;;;;23.50;22.00;;;;;;;;5096806;27;45549;-65
2022/05/02 04:38:50;;;;;;;;;20.00;20.00;;;;;;;;5085559;27;45396;-65
2022/05/02 04:41:16;;;;;;;;;29.00;26.00;;;;;;;;5084797;27;45329;-65
2022/05/02 04:43:42;;;;;;;;;28.00;27.00;;;;;;;;5085436;27;45344;-64
2022/05/02 04:46:08;;;;;;;;;23.00;21.50;;;;;;;;5095844;27;45506;-65
2022/05/02 04:48:33;;;;;;;;;22.75;22.75;;;;;;;;5080425;27;45961;-65
2022/05/02 04:50:58;;;;;;;;;32.00;30.50;;;;;;;;5073603;28;45420;-67
2022/05/02 04:53:24;;;;;;;;;26.25;23.75;;;;;;;;5083811;27;45619;-64
2022/05/02 04:55:49;;;;;;;;;27.25;25.50;;;;;;;;5069701;27;46509;-64
2022/05/02 04:58:14;;;;;;;;;26.50;24.25;;;;;;;;5075912;27;45715;-65
2022/05/02 05:00:39;;;;;;;;;26.00;26.00;;;;;;;;5078870;27;45512;-64
2022/05/02 05:03:05;;;;;;;;;24.75;23.75;;;;;;;;5083579;27;45467;-64
2022/05/02 05:05:30;;;;;;;;;24.75;23.25;;;;;;;;5064382;28;47442;-64
2022/05/02 05:07:56;;;;;;;;;26.75;25.75;;;;;;;;5070178;27;45593;-65
2022/05/02 05:10:21;;;;;;;;;26.25;25.50;;;;;;;;5079403;27;45618;-65
2022/05/02 05:13:03;;;;;;;;;29.50;25.75;;;;;;;;5088204;27;45483;-65
2022/05/02 05:18:33;;;;;;;;;29.50;29.50;;;;;;;;5084181;27;45549;-64
2022/05/02 05:21:07;;;;;;;;;33.75;30.00;;;;;;;;5083653;27;45397;-64
2022/05/02 05:23:56;;;;;;;;;34.25;29.75;;;;;;;;5060089;28;45594;-65
2022/05/02 05:26:42;;;;;;;;;30.75;29.50;;;;;;;;5083808;27;46315;-65
2022/05/02 05:29:23;;;;;;;;;31.75;29.75;;;;;;;;5064946;28;45456;-64
2022/05/02 05:31:48;;;;;;;;;36.75;32.50;;;;;;;;5083674;27;45510;-65
2022/05/02 05:34:22;;;;;;;;;39.25;34.00;;;;;;;;5080654;27;45420;-64
2022/05/02 05:37:00;;;;;;;;;32.00;30.25;;;;;;;;5079312;27;48075;-65
2022/05/02 05:39:43;;;;;;;;;36.50;34.50;;;;;;;;5079940;27;45591;-65
2022/05/02 05:42:32;;;;;;;;;39.00;35.50;;;;;;;;5095088;27;45490;-66
2022/05/02 05:45:05;;;;;;;;;39.75;32.50;;;;;;;;5065061;28;45817;-64
2022/05/02 05:47:33;;;;;;;;;36.25;33.00;;;;;;;;5083621;27;46399;-65
2022/05/02 05:50:05;;;;;;;;;34.50;32.00;;;;;;;;5065122;28;45362;-65
2022/05/02 05:52:33;;;;;;;;;37.25;34.75;;;;;;;;5081756;27;45575;-64
2022/05/02 05:54:58;;;;;;;;;37.00;33.25;;;;;;;;5077523;27;45686;-65
2022/05/02 05:57:45;;;;;;;;;43.00;35.00;;;;;;;;5079428;27;45722;-66
2022/05/02 06:00:11;;;;;;;;;38.00;33.25;;;;;;;;5080544;27;45609;-65
2022/05/02 06:02:46;;;;;;;;;37.75;34.75;;;;;;;;5081829;27;45555;-65
2022/05/02 06:05:12;;;;;;;;;41.00;36.50;;;;;;;;5081688;27;45554;-65
2022/05/02 06:07:38;;;;;;;;;38.75;33.50;;;;;;;;5082044;27;47238;-66
2022/05/02 06:10:05;;;;;;;;;35.50;33.25;;;;;;;;5077289;27;45781;-64
2022/05/02 06:12:30;;;;;;;;;43.50;37.50;;;;;;;;5074202;28;45942;-65
2022/05/02 06:20:29;;;;;;;;;35.75;32.50;;;;;;;;5081670;27;45419;-65
2022/05/02 06:22:54;;;;;;;;;45.00;36.00;;;;;;;;5081762;27;45599;-65
2022/05/02 06:25:22;;;;;;;;;42.00;37.00;;;;;;;;5077186;27;45514;-65
2022/05/02 06:27:47;;;;;;;;;45.25;39.50;;;;;;;;5088008;27;47836;-65
2022/05/02 06:30:13;;;;;;;;;38.00;35.25;;;;;;;;5080323;27;45383;-65
2022/05/02 06:32:40;;;;;;;;;42.00;36.50;;;;;;;;5081541;27;45365;-66
2022/05/02 06:35:06;;;;;;;;;38.25;34.00;;;;;;;;5063416;28;45937;-64
2022/05/02 06:37:37;;;;;;;;;41.25;35.75;;;;;;;;5075921;27;46869;-65
2022/05/02 06:40:02;;;;;;;;;48.00;39.00;;;;;;;;5058503;27;45694;-65
2022/05/02 06:42:37;;;;;;;;;38.25;35.75;;;;;;;;5078198;27;45692;-66
2022/05/02 06:45:16;;;;;;;;;39.25;35.25;;;;;;;;5076797;27;45847;-64
2022/05/02 06:47:57;;;;;;;;;40.75;36.25;;;;;;;;5076517;27;47828;-64
2022/05/02 06:50:25;;;;;;;;;41.25;36.50;;;;;;;;5076553;27;45510;-63
2022/05/02 06:52:51;;;;;;;;;37.75;33.00;;;;;;;;5076147;27;45638;-65
2022/05/02 06:55:31;;;;;;;;;39.00;34.50;;;;;;;;5075628;27;45613;-66
2022/05/02 06:57:59;;;;;;;;;41.00;35.75;;;;;;;;5074289;27;46809;-65
2022/05/02 07:00:30;;;;;;;;;46.75;38.25;;;;;;;;5074377;27;45483;-65
2022/05/02 07:03:01;;;;;;;;;40.00;35.25;;;;;;;;5075693;27;45644;-65
2022/05/02 07:05:27;;;;;;;;;44.25;38.75;;;;;;;;5057717;28;45432;-65
2022/05/02 07:08:03;;;;;;;;;44.00;34.75;;;;;;;;5082807;27;47071;-64
2022/05/02 07:10:32;;;;;;;;;45.00;33.50;;;;;;;;5092447;27;45374;-65
2022/05/02 07:13:16;;;;;;;;;45.25;36.00;;;;;;;;5076244;27;45346;-65
2022/05/02 07:15:45;;;;;;;;;37.25;34.25;;;;;;;;5071387;27;45717;-65
2022/05/02 07:18:17;;;;;;;;;39.75;36.25;;;;;;;;5069511;28;46546;-65
2022/05/02 07:20:48;;;;;;;;;38.75;33.25;;;;;;;;5065824;28;45774;-65
2022/05/02 07:23:16;;;;;;;;;42.00;36.00;;;;;;;;5089552;27;45429;-65
2022/05/02 07:25:48;;;;;;;;;44.50;37.75;;;;;;;;5074449;28;45473;-65
2022/05/02 07:28:16;;;;;;;;;35.50;33.75;;;;;;;;5081156;27;46722;-64
2022/05/02 07:30:42;;;;;;;;;38.00;33.25;;;;;;;;5079762;27;45487;-65
2022/05/02 07:33:08;;;;;;;;;46.75;38.50;;;;;;;;5083486;27;45414;-66
2022/05/02 07:35:34;;;;;;;;;39.50;34.50;;;;;;;;5084504;27;45429;-65
2022/05/02 07:38:01;;;;;;;;;40.25;34.75;;;;;;;;5084193;27;45886;-66
2022/05/02 07:40:26;;;;;;;;;34.00;32.25;;;;;;;;5064375;27;45474;-65
2022/05/02 07:42:53;;;;;;;;;38.50;32.00;;;;;;;;5079598;27;45451;-65
2022/05/02 07:45:21;;;;;;;;;41.25;35.00;;;;;;;;5082335;27;45749;-65
2022/05/02 07:47:49;;;;;;;;;40.75;35.00;;;;;;;;5093475;27;45844;-65
2022/05/02 07:50:15;;;;;;;;;34.00;33.00;;;;;;;;5090319;27;45342;-64
2022/05/02 07:52:42;;;;;;;;;44.75;35.50;;;;;;;;5084047;27;45527;-64
2022/05/02 07:55:09;;;;;;;;;43.00;32.75;;;;;;;;5061480;27;45714;-65
2022/05/02 07:57:37;;;;;;;;;42.00;36.25;;;;;;;;5079955;27;45664;-65
2022/05/02 08:00:04;;;;;;;;;38.25;34.00;;;;;;;;5064467;28;45890;-65
2022/05/02 08:02:30;;;;;;;;;38.25;34.00;;;;;;;;5068598;27;45567;-65
2022/05/02 08:04:56;;;;;;;;;36.75;35.50;;;;;;;;5087612;27;47778;-65
2022/05/02 08:07:31;;;;;;;;;47.00;37.50;;;;;;;;5075375;27;47407;-65
2022/05/02 08:10:14;;;;;;;;;39.50;35.50;;;;;;;;5079107;27;45686;-66
2022/05/02 08:12:40;;;;;;;;;40.75;35.50;;;;;;;;5074273;27;45468;-65
2022/05/02 08:15:13;;;;;;;;;43.25;36.25;;;;;;;;5083475;27;45561;-65
2022/05/02 08:17:57;;;;;;;;;46.00;38.75;;;;;;;;5084098;27;46483;-67
2022/05/02 08:20:43;;;;;;;;;47.75;38.50;;;;;;;;5083678;27;45424;-67
2022/05/02 08:29:14;;;;;;;;;39.25;35.50;;;;;;;;5020482;28;45865;-67
2022/05/02 08:31:59;;;;;;;;;48.25;39.75;;;;;;;;5004029;28;45556;-67
2022/05/02 08:34:24;;;;;;;;;44.25;37.00;;;;;;;;4956387;28;45463;-66
2022/05/02 08:37:08;;;;;;;;;43.25;37.00;;;;;;;;4947654;28;46063;-67
2022/05/02 08:39:56;;;;;;;;;42.50;37.25;;;;;;;;4964934;28;45471;-66
2022/05/02 08:42:47;;;;;;;;;43.50;36.25;;;;;;;;4967942;28;45423;-66
2022/05/02 08:45:13;;;;;;;;;45.50;38.50;;;;;;;;4942930;28;45494;-67
2022/05/02 08:48:09;;;;;;;;;48.50;38.50;;;;;;;;4971607;28;45954;-66
2022/05/02 08:50:34;;;;;;;;;46.25;37.75;;;;;;;;4971911;28;45903;-67
2022/05/02 08:53:05;;;;;;;;;45.50;38.50;;;;;;;;4972009;28;47171;-66
2022/05/02 08:55:48;;;;;;;;;51.25;40.00;;;;;;;;4972498;28;45927;-66
2022/05/02 08:58:25;;;;;;;;;50.75;41.00;;;;;;;;4971935;28;45597;-67
2022/05/02 09:01:09;;;;;;;;;49.50;41.25;;;;;;;;4995978;28;46030;-66
2022/05/02 09:03:52;;;;;;;;;43.00;35.75;;;;;;;;5002748;28;45556;-66
2022/05/02 09:06:23;;;;;;;;;49.50;41.00;;;;;;;;5014541;28;45596;-67
2022/05/02 09:08:48;;;;;;;;;44.00;38.00;;;;;;;;5011535;28;45418;-66
2022/05/02 09:11:31;;;;;;;;;46.50;37.75;;;;;;;;5041542;27;45686;-67
2022/05/02 09:14:15;;;;;;;;;47.75;40.00;;;;;;;;5087929;27;45451;-66
2022/05/02 09:16:52;;;;;;;;;49.50;39.75;;;;;;;;5070894;27;45568;-67
2022/05/02 09:19:20;;;;;;;;;46.75;37.50;;;;;;;;5073199;27;45916;-66
2022/05/02 09:21:54;;;;;;;;;42.75;38.00;;;;;;;;5090424;27;46579;-66
2022/05/02 09:24:38;;;;;;;;;38.75;35.75;;;;;;;;5089799;27;45825;-66
2022/05/02 09:27:16;;;;;;;;;45.25;39.75;;;;;;;;5067629;28;45488;-66
2022/05/02 09:30:00;;;;;;;;;46.75;39.50;;;;;;;;5066583;27;45540;-66
2022/05/02 09:32:44;;;;;;;;;44.75;37.00;;;;;;;;5089093;27;45861;-66
2022/05/02 09:35:13;;;;;;;;;45.50;37.00;;;;;;;;5077406;27;46475;-66
2022/05/02 09:37:39;;;;;;;;;41.00;35.75;;;;;;;;5075689;27;45646;-66
2022/05/02 09:40:15;;;;;;;;;32.50;30.00;;;;;;;;5072720;27;45753;-66
2022/05/02 09:42:50;;;;;;;;;48.75;40.75;;;;;;;;5070528;27;47493;-66
2022/05/02 09:51:20;;;;;;;;;43.25;37.25;;;;;;;;5082316;27;45437;-65
2022/05/02 09:53:48;;;;;;;;;40.25;34.00;;;;;;;;5085844;27;46330;-65
2022/05/02 09:56:38;;;;;;;;;39.25;34.25;;;;;;;;5086109;27;47013;-66
2022/05/02 09:59:19;;;;;;;;;39.00;35.00;;;;;;;;5074545;27;45598;-65
2022/05/02 10:01:49;;;;;;;;;43.25;36.00;;;;;;;;5087720;27;45643;-66
2022/05/02 10:04:32;;;;;;;;;39.50;34.75;;;;;;;;5090725;27;46727;-66
2022/05/02 10:07:10;;;;;;;;;37.00;32.75;;;;;;;;5078737;27;45359;-66
2022/05/02 10:09:41;;;;;;;;;35.00;32.75;;;;;;;;5083643;27;45736;-67
2022/05/02 10:12:26;;;;;;;;;38.50;34.50;;;;;;;;5092902;27;45850;-66
2022/05/02 10:15:10;;;;;;;;;37.25;33.75;;;;;;;;5065035;27;46868;-66
2022/05/02 10:18:04;;;;;;;;;39.25;34.75;;;;;;;;5079605;27;45538;-66
2022/05/02 10:21:07;;;;;;;;;40.25;34.00;;;;;;;;5084392;27;45407;-66
2022/05/02 10:23:32;;;;;;;;;44.00;36.00;;;;;;;;4986710;28;45661;-66
2022/05/02 10:26:06;;;;;;;;;45.50;34.50;;;;;;;;5004628;28;45675;-65
2022/05/02 10:28:31;;;;;;;;;36.00;32.50;;;;;;;;5007756;28;45508;-65
2022/05/02 10:30:59;;;;;;;;;41.75;34.50;;;;;;;;4987045;28;45688;-66
2022/05/02 10:33:34;;;;;;;;;39.00;32.75;;;;;;;;4993500;28;45546;-65
2022/05/02 10:36:00;;;;;;;;;38.25;33.25;;;;;;;;5005064;28;46050;-65
2022/05/02 10:38:27;;;;;;;;;36.25;32.75;;;;;;;;5009435;28;46001;-67
2022/05/02 10:40:56;;;;;;;;;34.75;32.25;;;;;;;;5007496;28;45687;-66
2022/05/02 10:43:25;;;;;;;;;32.00;31.00;;;;;;;;4991281;28;45563;-66
2022/05/02 10:45:51;;;;;;;;;44.00;38.00;;;;;;;;5007807;28;45753;-67
2022/05/02 10:48:19;;;;;;;;;33.50;31.25;;;;;;;;5005369;28;46652;-66
2022/05/02 10:50:53;;;;;;;;;34.25;31.75;;;;;;;;5008547;28;45532;-66
2022/05/02 10:53:37;;;;;;;;;30.50;28.00;;;;;;;;5003005;28;45803;-67
2022/05/02 10:56:05;;;;;;;;;32.50;31.25;;;;;;;;5006984;28;46079;-67
2022/05/02 10:58:33;;;;;;;;;37.75;35.00;;;;;;;;5075597;27;45608;-67
2022/05/02 11:01:01;;;;;;;;;31.50;26.75;;;;;;;;5071114;27;45490;-67
2022/05/02 11:03:46;;;;;;;;;35.00;33.50;;;;;;;;5081867;27;46726;-68
2022/05/02 11:06:18;;;;;;;;;32.75;31.75;;;;;;;;5086429;27;45464;-68
2022/05/02 11:08:44;;;;;;;;;32.75;31.75;;;;;;;;5086437;27;45431;-65
2022/05/02 11:11:18;;;;;;;;;38.50;33.50;;;;;;;;5085015;27;45518;-66
2022/05/02 11:13:57;;;;;;;;;30.25;27.50;;;;;;;;5086493;27;45871;-66
2022/05/02 11:16:26;;;;;;;;;34.75;33.50;;;;;;;;5086945;27;45528;-65
2022/05/02 11:22:08;;;;;;;;;30.50;30.50;;;;;;;;5086082;27;45491;-66
2022/05/02 11:24:47;;;;;;;;;28.25;24.25;;;;;;;;5075797;27;45495;-65
2022/05/02 11:27:19;;;;;;;;;32.25;28.25;;;;;;;;5062405;27;45575;-65
2022/05/02 11:30:00;;;;;;;;;28.50;27.25;;;;;;;;5088091;27;45518;-65
2022/05/02 11:32:25;;;;;;;;;28.50;27.00;;;;;;;;5065924;27;45619;-64
2022/05/02 11:35:08;;;;;;;;;36.25;34.25;;;;;;;;5089732;27;45709;-65
2022/05/02 11:37:45;;;;;;;;;31.25;30.75;;;;;;;;5084066;27;45431;-65
2022/05/02 11:40:11;;;;;;;;;28.25;27.25;;;;;;;;5091939;27;45723;-66
2022/05/02 11:42:55;;;;;;;;;27.50;26.25;;;;;;;;5072509;27;45634;-65
2022/05/02 11:45:28;;;;;;;;;30.00;29.50;;;;;;;;5084782;27;45539;-66
2022/05/02 11:48:09;;;;;;;;;24.75;24.25;;;;;;;;5066357;28;46007;-65
2022/05/02 11:50:40;;;;;;;;;31.50;30.50;;;;;;;;5082609;27;45625;-66
2022/05/02 11:53:08;;;;;;;;;30.75;29.25;;;;;;;;5082231;27;45974;-65
2022/05/02 11:55:34;;;;;;;;;41.00;34.75;;;;;;;;5072882;27;45836;-66
2022/05/02 11:58:00;;;;;;;;;23.00;23.00;;;;;;;;5069295;27;48421;-67
2022/05/02 12:00:29;;;;;;;;;25.75;25.00;;;;;;;;5077764;27;45386;-67
2022/05/02 12:03:14;;;;;;;;;31.75;29.00;;;;;;;;5081296;27;45409;-65
2022/05/02 12:05:41;;;;;;;;;26.75;25.75;;;;;;;;5083746;27;45416;-66
2022/05/02 12:08:29;;;;;;;;;35.50;32.25;;;;;;;;5085116;27;46443;-66
2022/05/02 12:11:07;;;;;;;;;24.50;24.50;;;;;;;;5083397;27;45508;-65
2022/05/02 12:13:34;;;;;;;;;28.50;28.50;;;;;;;;5065175;27;45494;-66
2022/05/02 12:16:01;;;;;;;;;30.50;28.50;;;;;;;;5096031;27;45571;-65
2022/05/02 12:18:41;;;;;;;;;25.75;25.75;;;;;;;;5080918;27;48015;-67
2022/05/02 12:21:08;;;;;;;;;25.25;24.00;;;;;;;;5086587;27;45485;-67
2022/05/02 12:23:35;;;;;;;;;30.75;28.75;;;;;;;;5081900;27;45558;-67
2022/05/02 12:26:03;;;;;;;;;24.00;24.00;;;;;;;;5088847;27;45623;-65
2022/05/02 12:28:48;;;;;;;;;25.50;24.50;;;;;;;;5094484;27;46448;-64
2022/05/02 12:31:15;;;;;;;;;26.50;25.25;;;;;;;;5092812;27;46113;-66
2022/05/02 12:33:41;;;;;;;;;21.50;18.75;;;;;;;;5093124;27;45625;-65
2022/05/02 12:36:17;;;;;;;;;21.75;21.75;;;;;;;;5095537;27;45660;-65
2022/05/02 12:38:44;;;;;;;;;22.00;22.00;;;;;;;;5093801;27;46859;-65
2022/05/02 12:41:11;;;;;;;;;27.75;27.00;;;;;;;;5072497;28;45818;-66
2022/05/02 12:43:44;;;;;;;;;25.00;24.75;;;;;;;;5083110;27;45559;-65
2022/05/02 12:46:10;;;;;;;;;22.50;22.25;;;;;;;;5092246;27;45437;-65
2022/05/02 12:48:39;;;;;;;;;23.75;23.25;;;;;;;;5079015;27;45554;-66
2022/05/02 12:51:15;;;;;;;;;26.25;24.00;;;;;;;;5082075;27;45834;-66
2022/05/02 12:56:24;;;;;;;;;26.25;25.50;;;;;;;;5094442;27;45914;-66
2022/05/02 13:01:46;;;;;;;;;22.75;22.75;;;;;;;;5094390;27;45764;-66
2022/05/02 13:04:16;;;;;;;;;22.00;21.50;;;;;;;;5094096;27;49969;-65
2022/05/02 13:06:42;;;;;;;;;28.25;26.50;;;;;;;;5094494;27;45527;-65
2022/05/02 13:09:12;;;;;;;;;32.25;26.00;;;;;;;;5094780;27;45630;-65
2022/05/02 13:11:38;;;;;;;;;24.00;24.00;;;;;;;;5092623;27;45486;-65
2022/05/02 13:14:04;;;;;;;;;26.25;23.50;;;;;;;;5093172;27;45427;-65
2022/05/02 13:16:30;;;;;;;;;22.75;18.00;;;;;;;;5075327;27;45740;-67
2022/05/02 13:18:58;;;;;;;;;25.00;24.00;;;;;;;;5093920;27;46411;-65
2022/05/02 13:21:24;;;;;;;;;21.00;21.00;;;;;;;;5094942;27;45598;-65
2022/05/02 13:23:57;;;;;;;;;22.00;22.00;;;;;;;;5094168;27;45491;-65
2022/05/02 13:26:34;;;;;;;;;22.75;22.00;;;;;;;;5093585;27;45522;-65
2022/05/02 13:29:05;;;;;;;;;23.00;22.00;;;;;;;;5093898;27;45648;-65
2022/05/02 13:31:49;;;;;;;;;24.75;24.75;;;;;;;;5093201;27;45640;-65
2022/05/02 13:34:18;;;;;;;;;29.50;28.50;;;;;;;;5074534;27;45483;-65
2022/05/02 13:36:43;;;;;;;;;25.00;23.25;;;;;;;;5077959;27;45475;-65
2022/05/02 13:39:19;;;;;;;;;22.25;22.25;;;;;;;;5081621;27;45752;-65
2022/05/02 13:41:48;;;;;;;;;24.25;22.50;;;;;;;;5091351;27;45752;-65
2022/05/02 13:44:21;;;;;;;;;27.50;27.50;;;;;;;;5093712;27;45670;-65
2022/05/02 13:46:47;;;;;;;;;25.00;23.50;;;;;;;;5093227;27;45478;-65
2022/05/02 13:49:20;;;;;;;;;23.25;23.25;;;;;;;;5093804;27;45709;-65
2022/05/02 13:51:53;;;;;;;;;25.75;24.75;;;;;;;;5094142;27;45689;-66
2022/05/02 13:54:26;;;;;;;;;26.25;26.25;;;;;;;;5092558;27;45404;-65
2022/05/02 13:57:11;;;;;;;;;25.00;23.25;;;;;;;;5071430;28;45491;-65
2022/05/02 13:59:48;;;;;;;;;25.50;25.00;;;;;;;;5089788;27;46581;-65
2022/05/02 14:02:18;;;;;;;;;26.00;23.75;;;;;;;;5093171;27;45482;-65
2022/05/02 14:04:53;;;;;;;;;23.00;21.00;;;;;;;;5074022;27;45454;-66
2022/05/02 14:07:19;;;;;;;;;20.25;20.25;;;;;;;;5057961;27;45637;-66
2022/05/02 14:09:44;;;;;;;;;19.50;18.50;;;;;;;;5075134;27;46415;-66
2022/05/02 14:12:22;;;;;;;;;25.00;22.50;;;;;;;;5081470;27;45365;-67
2022/05/02 14:14:59;;;;;;;;;23.00;20.75;;;;;;;;5065954;27;45515;-66
2022/05/02 14:17:35;;;;;;;;;22.50;21.75;;;;;;;;5085316;27;45360;-66
2022/05/02 14:20:25;;;;;;;;;21.50;21.50;;;;;;;;5086240;27;46536;-66
2022/05/02 14:22:58;;;;;;;;;25.00;23.50;;;;;;;;5091794;27;45593;-66
2022/05/02 14:25:36;;;;;;;;;18.00;18.00;;;;;;;;5079647;27;45577;-65
2022/05/02 14:28:07;;;;;;;;;26.25;24.00;;;;;;;;5075725;27;45433;-64
2022/05/02 14:30:37;;;;;;;;;27.50;27.50;;;;;;;;5078223;27;46327;-65
2022/05/02 14:33:02;;;;;;;;;22.25;21.75;;;;;;;;5071565;28;45680;-64
2022/05/02 14:35:29;;;;;;;;;27.75;26.25;;;;;;;;5081832;27;45537;-65
2022/05/02 14:37:55;;;;;;;;;29.00;29.00;;;;;;;;5081546;27;45406;-65
2022/05/02 14:40:21;;;;;;;;;29.25;26.00;;;;;;;;5079163;27;45825;-65
2022/05/02 14:42:48;;;;;;;;;30.00;24.75;;;;;;;;5076430;27;45441;-65
2022/05/02 14:45:13;;;;;;;;;25.50;24.75;;;;;;;;5062342;28;45646;-65
2022/05/02 14:47:41;;;;;;;;;21.25;21.00;;;;;;;;5081374;27;45345;-65
2022/05/02 14:50:08;;;;;;;;;27.25;26.50;;;;;;;;5081408;27;47484;-65
2022/05/02 14:52:35;;;;;;;;;31.00;30.00;;;;;;;;5080670;27;45625;-65
2022/05/02 14:55:02;;;;;;;;;25.00;22.00;;;;;;;;5076858;27;45389;-65
2022/05/02 14:57:29;;;;;;;;;26.25;24.50;;;;;;;;5093828;27;45379;-65
2022/05/02 14:59:55;;;;;;;;;16.75;16.75;;;;;;;;5081843;27;46733;-64
2022/05/02 15:02:23;;;;;;;;;14.25;14.25;;;;;;;;5081492;27;45554;-64